sensor_id;sensor_type;location;lat;lon;timestamp;P1;durP1;ratioP1;P2;durP2;ratioP2
78873;SDS011;68250;43.514;1.494;2023-03-03T00:00:12;37.47;;;17.87;;
78873;SDS011;68250;43.514;1.494;2023-03-03T00:02:38;38.70;;;18.77;;
78873;SDS011;68250;43.514;1.494;2023-03-03T00:05:04;40.03;;;18.97;;
78873;SDS011;68250;43.514;1.494;2023-03-03T00:07:30;40.63;;;19.40;;
78873;SDS011;68250;43.514;1.494;2023-03-03T00:09:56;39.92;;;18.48;;
78873;SDS011;68250;43.514;1.494;2023-03-03T00:12:28;37.85;;;19.05;;
78873;SDS011;68250;43.514;1.494;2023-03-03T00:14:55;39.08;;;18.35;;
78873;SDS011;68250;43.514;1.494;2023-03-03T00:17:25;40.50;;;19.60;;
78873;SDS011;68250;43.514;1.494;2023-03-03T00:19:54;40.38;;;18.40;;
78873;SDS011;68250;43.514;1.494;2023-03-03T00:25:37;39.50;;;18.98;;
78873;SDS011;68250;43.514;1.494;2023-03-03T00:27:52;42.23;;;19.53;;
78873;SDS011;68250;43.514;1.494;2023-03-03T00:30:25;42.17;;;19.83;;
78873;SDS011;68250;43.514;1.494;2023-03-03T00:32:52;39.63;;;18.65;;
78873;SDS011;68250;43.514;1.494;2023-03-03T00:35:31;38.33;;;18.07;;
78873;SDS011;68250;43.514;1.494;2023-03-03T00:38:36;40.20;;;19.33;;
78873;SDS011;68250;43.514;1.494;2023-03-03T00:40:54;39.20;;;18.50;;
78873;SDS011;68250;43.514;1.494;2023-03-03T00:43:23;41.13;;;18.97;;
78873;SDS011;68250;43.514;1.494;2023-03-03T00:45:55;40.90;;;19.48;;
78873;SDS011;68250;43.514;1.494;2023-03-03T00:48:22;40.05;;;18.38;;
78873;SDS011;68250;43.514;1.494;2023-03-03T00:50:48;38.92;;;17.73;;
78873;SDS011;68250;43.514;1.494;2023-03-03T00:53:15;41.85;;;20.13;;
78873;SDS011;68250;43.514;1.494;2023-03-03T00:55:42;39.60;;;18.90;;
78873;SDS011;68250;43.514;1.494;2023-03-03T00:58:08;42.72;;;20.50;;
78873;SDS011;68250;43.514;1.494;2023-03-03T01:00:34;40.15;;;19.05;;
78873;SDS011;68250;43.514;1.494;2023-03-03T01:03:01;40.13;;;19.10;;
78873;SDS011;68250;43.514;1.494;2023-03-03T01:05:30;45.38;;;20.95;;
78873;SDS011;68250;43.514;1.494;2023-03-03T01:07:56;40.95;;;19.80;;
78873;SDS011;68250;43.514;1.494;2023-03-03T01:10:22;43.08;;;19.67;;
78873;SDS011;68250;43.514;1.494;2023-03-03T01:12:48;41.30;;;20.05;;
78873;SDS011;68250;43.514;1.494;2023-03-03T01:15:14;40.85;;;19.40;;
78873;SDS011;68250;43.514;1.494;2023-03-03T01:17:40;40.73;;;19.17;;
78873;SDS011;68250;43.514;1.494;2023-03-03T01:20:08;38.40;;;19.00;;
78873;SDS011;68250;43.514;1.494;2023-03-03T01:22:34;38.58;;;18.10;;
78873;SDS011;68250;43.514;1.494;2023-03-03T01:25:00;36.63;;;17.63;;
78873;SDS011;68250;43.514;1.494;2023-03-03T01:27:28;38.95;;;17.88;;
78873;SDS011;68250;43.514;1.494;2023-03-03T01:29:54;37.30;;;17.65;;
78873;SDS011;68250;43.514;1.494;2023-03-03T01:32:21;36.72;;;17.35;;
78873;SDS011;68250;43.514;1.494;2023-03-03T01:34:47;37.08;;;17.25;;
78873;SDS011;68250;43.514;1.494;2023-03-03T01:37:13;35.43;;;17.17;;
78873;SDS011;68250;43.514;1.494;2023-03-03T01:39:38;35.80;;;17.13;;
78873;SDS011;68250;43.514;1.494;2023-03-03T01:42:04;38.03;;;17.98;;
78873;SDS011;68250;43.514;1.494;2023-03-03T01:44:30;39.50;;;17.27;;
78873;SDS011;68250;43.514;1.494;2023-03-03T01:49:31;37.40;;;17.47;;
78873;SDS011;68250;43.514;1.494;2023-03-03T01:52:02;33.92;;;16.83;;
78873;SDS011;68250;43.514;1.494;2023-03-03T01:54:36;36.75;;;17.75;;
78873;SDS011;68250;43.514;1.494;2023-03-03T01:57:08;39.22;;;17.83;;
78873;SDS011;68250;43.514;1.494;2023-03-03T01:59:38;37.22;;;17.60;;
78873;SDS011;68250;43.514;1.494;2023-03-03T02:02:06;36.53;;;18.00;;
78873;SDS011;68250;43.514;1.494;2023-03-03T02:04:33;37.00;;;17.52;;
78873;SDS011;68250;43.514;1.494;2023-03-03T02:07:00;34.92;;;17.00;;
78873;SDS011;68250;43.514;1.494;2023-03-03T02:12:51;36.97;;;17.02;;
78873;SDS011;68250;43.514;1.494;2023-03-03T02:15:20;35.93;;;17.10;;
78873;SDS011;68250;43.514;1.494;2023-03-03T02:17:48;36.10;;;17.75;;
78873;SDS011;68250;43.514;1.494;2023-03-03T02:22:49;36.28;;;17.55;;
78873;SDS011;68250;43.514;1.494;2023-03-03T02:25:21;36.58;;;17.70;;
78873;SDS011;68250;43.514;1.494;2023-03-03T02:27:58;38.97;;;17.97;;
78873;SDS011;68250;43.514;1.494;2023-03-03T02:30:25;36.65;;;17.73;;
78873;SDS011;68250;43.514;1.494;2023-03-03T02:32:50;39.50;;;18.65;;
78873;SDS011;68250;43.514;1.494;2023-03-03T02:37:51;36.55;;;17.38;;
78873;SDS011;68250;43.514;1.494;2023-03-03T02:40:17;38.40;;;17.73;;
78873;SDS011;68250;43.514;1.494;2023-03-03T02:42:46;38.73;;;16.67;;
78873;SDS011;68250;43.514;1.494;2023-03-03T02:45:12;36.72;;;17.70;;
78873;SDS011;68250;43.514;1.494;2023-03-03T02:47:38;37.80;;;17.40;;
78873;SDS011;68250;43.514;1.494;2023-03-03T02:50:05;40.00;;;17.60;;
78873;SDS011;68250;43.514;1.494;2023-03-03T02:52:31;37.72;;;17.95;;
78873;SDS011;68250;43.514;1.494;2023-03-03T02:54:56;39.77;;;18.63;;
78873;SDS011;68250;43.514;1.494;2023-03-03T02:57:22;40.10;;;18.77;;
78873;SDS011;68250;43.514;1.494;2023-03-03T02:59:48;38.47;;;18.73;;
78873;SDS011;68250;43.514;1.494;2023-03-03T03:02:13;39.80;;;18.77;;
78873;SDS011;68250;43.514;1.494;2023-03-03T03:04:39;39.25;;;18.67;;
78873;SDS011;68250;43.514;1.494;2023-03-03T03:07:04;37.33;;;18.03;;
78873;SDS011;68250;43.514;1.494;2023-03-03T03:09:30;39.97;;;18.37;;
78873;SDS011;68250;43.514;1.494;2023-03-03T03:11:55;36.83;;;17.33;;
78873;SDS011;68250;43.514;1.494;2023-03-03T03:14:23;37.83;;;18.10;;
78873;SDS011;68250;43.514;1.494;2023-03-03T03:16:48;37.22;;;18.00;;
78873;SDS011;68250;43.514;1.494;2023-03-03T03:19:14;37.13;;;17.53;;
78873;SDS011;68250;43.514;1.494;2023-03-03T03:21:40;40.33;;;18.48;;
78873;SDS011;68250;43.514;1.494;2023-03-03T03:24:05;37.87;;;17.57;;
78873;SDS011;68250;43.514;1.494;2023-03-03T03:26:31;37.38;;;18.77;;
78873;SDS011;68250;43.514;1.494;2023-03-03T03:28:56;36.80;;;17.80;;
78873;SDS011;68250;43.514;1.494;2023-03-03T03:31:22;40.43;;;18.53;;
78873;SDS011;68250;43.514;1.494;2023-03-03T03:33:48;42.08;;;19.88;;
78873;SDS011;68250;43.514;1.494;2023-03-03T03:36:13;40.80;;;18.87;;
78873;SDS011;68250;43.514;1.494;2023-03-03T03:38:39;39.47;;;18.37;;
78873;SDS011;68250;43.514;1.494;2023-03-03T03:41:05;40.13;;;18.90;;
78873;SDS011;68250;43.514;1.494;2023-03-03T03:43:31;40.50;;;19.17;;
78873;SDS011;68250;43.514;1.494;2023-03-03T03:45:57;37.43;;;17.87;;
78873;SDS011;68250;43.514;1.494;2023-03-03T03:48:23;36.90;;;17.63;;
78873;SDS011;68250;43.514;1.494;2023-03-03T03:50:48;37.87;;;18.53;;
78873;SDS011;68250;43.514;1.494;2023-03-03T03:53:15;37.40;;;18.25;;
78873;SDS011;68250;43.514;1.494;2023-03-03T03:55:41;41.00;;;18.92;;
78873;SDS011;68250;43.514;1.494;2023-03-03T03:58:07;37.23;;;17.37;;
78873;SDS011;68250;43.514;1.494;2023-03-03T04:00:33;35.45;;;17.42;;
78873;SDS011;68250;43.514;1.494;2023-03-03T04:02:58;39.80;;;18.33;;
78873;SDS011;68250;43.514;1.494;2023-03-03T04:05:24;35.35;;;17.52;;
78873;SDS011;68250;43.514;1.494;2023-03-03T04:07:49;37.40;;;17.45;;
78873;SDS011;68250;43.514;1.494;2023-03-03T04:10:15;36.10;;;17.03;;
78873;SDS011;68250;43.514;1.494;2023-03-03T04:12:42;34.45;;;16.95;;
78873;SDS011;68250;43.514;1.494;2023-03-03T04:15:08;37.87;;;18.00;;
78873;SDS011;68250;43.514;1.494;2023-03-03T04:17:34;38.85;;;18.45;;
78873;SDS011;68250;43.514;1.494;2023-03-03T04:20:00;37.08;;;17.80;;
78873;SDS011;68250;43.514;1.494;2023-03-03T04:22:27;41.83;;;19.70;;
78873;SDS011;68250;43.514;1.494;2023-03-03T04:24:54;45.20;;;20.50;;
78873;SDS011;68250;43.514;1.494;2023-03-03T04:27:19;42.30;;;20.23;;
78873;SDS011;68250;43.514;1.494;2023-03-03T04:29:45;43.70;;;19.60;;
78873;SDS011;68250;43.514;1.494;2023-03-03T04:32:11;46.50;;;21.67;;
78873;SDS011;68250;43.514;1.494;2023-03-03T04:34:36;52.85;;;22.65;;
78873;SDS011;68250;43.514;1.494;2023-03-03T04:37:02;67.97;;;26.53;;
78873;SDS011;68250;43.514;1.494;2023-03-03T04:39:28;81.70;;;32.22;;
78873;SDS011;68250;43.514;1.494;2023-03-03T04:41:53;75.37;;;29.70;;
78873;SDS011;68250;43.514;1.494;2023-03-03T04:44:19;63.72;;;27.15;;
78873;SDS011;68250;43.514;1.494;2023-03-03T04:46:45;77.20;;;30.37;;
78873;SDS011;68250;43.514;1.494;2023-03-03T04:49:10;80.03;;;32.27;;
78873;SDS011;68250;43.514;1.494;2023-03-03T04:51:36;67.45;;;27.52;;
78873;SDS011;68250;43.514;1.494;2023-03-03T04:54:01;72.40;;;29.37;;
78873;SDS011;68250;43.514;1.494;2023-03-03T04:56:28;65.10;;;26.77;;
78873;SDS011;68250;43.514;1.494;2023-03-03T04:58:55;54.83;;;23.48;;
78873;SDS011;68250;43.514;1.494;2023-03-03T05:01:21;41.25;;;20.15;;
78873;SDS011;68250;43.514;1.494;2023-03-03T05:03:46;44.95;;;19.92;;
78873;SDS011;68250;43.514;1.494;2023-03-03T05:06:12;43.37;;;19.90;;
78873;SDS011;68250;43.514;1.494;2023-03-03T05:08:38;43.70;;;19.70;;
78873;SDS011;68250;43.514;1.494;2023-03-03T05:11:03;40.07;;;19.50;;
78873;SDS011;68250;43.514;1.494;2023-03-03T05:13:29;37.60;;;18.23;;
78873;SDS011;68250;43.514;1.494;2023-03-03T05:15:55;39.58;;;18.63;;
78873;SDS011;68250;43.514;1.494;2023-03-03T05:18:22;39.67;;;17.98;;
78873;SDS011;68250;43.514;1.494;2023-03-03T05:20:49;41.53;;;19.73;;
78873;SDS011;68250;43.514;1.494;2023-03-03T05:23:16;48.90;;;20.48;;
78873;SDS011;68250;43.514;1.494;2023-03-03T05:25:42;46.03;;;21.13;;
78873;SDS011;68250;43.514;1.494;2023-03-03T05:28:08;47.53;;;21.65;;
78873;SDS011;68250;43.514;1.494;2023-03-03T05:30:34;43.50;;;20.42;;
78873;SDS011;68250;43.514;1.494;2023-03-03T05:33:00;43.67;;;20.25;;
78873;SDS011;68250;43.514;1.494;2023-03-03T05:35:26;43.72;;;19.73;;
78873;SDS011;68250;43.514;1.494;2023-03-03T05:37:51;39.37;;;18.83;;
78873;SDS011;68250;43.514;1.494;2023-03-03T05:40:19;38.88;;;18.40;;
78873;SDS011;68250;43.514;1.494;2023-03-03T05:42:44;38.88;;;18.55;;
78873;SDS011;68250;43.514;1.494;2023-03-03T05:45:10;35.97;;;18.07;;
78873;SDS011;68250;43.514;1.494;2023-03-03T05:47:36;39.20;;;18.85;;
78873;SDS011;68250;43.514;1.494;2023-03-03T05:50:02;39.37;;;17.73;;
78873;SDS011;68250;43.514;1.494;2023-03-03T05:52:28;42.17;;;18.83;;
78873;SDS011;68250;43.514;1.494;2023-03-03T05:54:53;38.77;;;18.00;;
78873;SDS011;68250;43.514;1.494;2023-03-03T05:57:19;37.70;;;18.73;;
78873;SDS011;68250;43.514;1.494;2023-03-03T05:59:44;42.13;;;18.67;;
78873;SDS011;68250;43.514;1.494;2023-03-03T06:02:10;38.93;;;18.60;;
78873;SDS011;68250;43.514;1.494;2023-03-03T06:04:35;38.38;;;18.92;;
78873;SDS011;68250;43.514;1.494;2023-03-03T06:07:01;40.83;;;19.40;;
78873;SDS011;68250;43.514;1.494;2023-03-03T06:09:27;42.50;;;19.42;;
78873;SDS011;68250;43.514;1.494;2023-03-03T06:11:53;40.20;;;19.75;;
78873;SDS011;68250;43.514;1.494;2023-03-03T06:14:18;39.40;;;18.60;;
78873;SDS011;68250;43.514;1.494;2023-03-03T06:16:47;39.33;;;18.35;;
78873;SDS011;68250;43.514;1.494;2023-03-03T06:19:13;39.97;;;18.23;;
78873;SDS011;68250;43.514;1.494;2023-03-03T06:21:39;40.67;;;18.13;;
78873;SDS011;68250;43.514;1.494;2023-03-03T06:24:05;38.15;;;18.13;;
78873;SDS011;68250;43.514;1.494;2023-03-03T06:26:31;36.67;;;18.83;;
78873;SDS011;68250;43.514;1.494;2023-03-03T06:28:57;37.72;;;18.52;;
78873;SDS011;68250;43.514;1.494;2023-03-03T06:31:23;39.30;;;17.40;;
78873;SDS011;68250;43.514;1.494;2023-03-03T06:33:50;38.03;;;17.98;;
78873;SDS011;68250;43.514;1.494;2023-03-03T06:36:16;38.67;;;18.92;;
78873;SDS011;68250;43.514;1.494;2023-03-03T06:38:42;37.10;;;18.00;;
78873;SDS011;68250;43.514;1.494;2023-03-03T06:41:08;41.42;;;18.05;;
78873;SDS011;68250;43.514;1.494;2023-03-03T06:43:34;40.97;;;19.38;;
78873;SDS011;68250;43.514;1.494;2023-03-03T06:46:00;41.33;;;20.38;;
78873;SDS011;68250;43.514;1.494;2023-03-03T06:48:26;39.15;;;20.08;;
78873;SDS011;68250;43.514;1.494;2023-03-03T06:50:51;41.43;;;19.97;;
78873;SDS011;68250;43.514;1.494;2023-03-03T06:53:17;45.17;;;21.30;;
78873;SDS011;68250;43.514;1.494;2023-03-03T06:55:43;45.90;;;21.23;;
78873;SDS011;68250;43.514;1.494;2023-03-03T06:58:14;40.63;;;19.83;;
78873;SDS011;68250;43.514;1.494;2023-03-03T07:00:44;41.97;;;19.45;;
78873;SDS011;68250;43.514;1.494;2023-03-03T07:03:18;45.30;;;19.15;;
78873;SDS011;68250;43.514;1.494;2023-03-03T07:05:48;42.53;;;19.80;;
78873;SDS011;68250;43.514;1.494;2023-03-03T07:08:15;43.30;;;20.27;;
78873;SDS011;68250;43.514;1.494;2023-03-03T07:10:42;44.50;;;19.85;;
78873;SDS011;68250;43.514;1.494;2023-03-03T07:13:19;43.28;;;20.45;;
78873;SDS011;68250;43.514;1.494;2023-03-03T07:15:47;45.10;;;20.30;;
78873;SDS011;68250;43.514;1.494;2023-03-03T07:21:04;45.58;;;20.13;;
78873;SDS011;68250;43.514;1.494;2023-03-03T07:23:37;40.15;;;19.63;;
78873;SDS011;68250;43.514;1.494;2023-03-03T07:26:28;41.17;;;19.30;;
78873;SDS011;68250;43.514;1.494;2023-03-03T07:29:12;37.90;;;19.17;;
78873;SDS011;68250;43.514;1.494;2023-03-03T07:31:46;41.40;;;19.65;;
78873;SDS011;68250;43.514;1.494;2023-03-03T07:34:20;44.38;;;20.00;;
78873;SDS011;68250;43.514;1.494;2023-03-03T07:37:00;40.78;;;19.52;;
78873;SDS011;68250;43.514;1.494;2023-03-03T07:39:35;40.97;;;19.75;;
78873;SDS011;68250;43.514;1.494;2023-03-03T07:44:56;39.35;;;19.85;;
78873;SDS011;68250;43.514;1.494;2023-03-03T07:47:24;42.40;;;19.75;;
78873;SDS011;68250;43.514;1.494;2023-03-03T07:49:50;41.78;;;19.70;;
78873;SDS011;68250;43.514;1.494;2023-03-03T07:52:25;42.83;;;20.05;;
78873;SDS011;68250;43.514;1.494;2023-03-03T08:03:43;40.53;;;18.58;;
78873;SDS011;68250;43.514;1.494;2023-03-03T08:06:30;41.42;;;20.00;;
78873;SDS011;68250;43.514;1.494;2023-03-03T08:11:42;41.90;;;19.70;;
78873;SDS011;68250;43.514;1.494;2023-03-03T08:14:14;40.60;;;19.52;;
78873;SDS011;68250;43.514;1.494;2023-03-03T08:16:49;40.70;;;19.45;;
78873;SDS011;68250;43.514;1.494;2023-03-03T08:19:14;42.20;;;19.80;;
78873;SDS011;68250;43.514;1.494;2023-03-03T08:21:42;41.80;;;19.27;;
78873;SDS011;68250;43.514;1.494;2023-03-03T08:24:08;37.95;;;19.15;;
78873;SDS011;68250;43.514;1.494;2023-03-03T08:26:34;42.07;;;20.90;;
78873;SDS011;68250;43.514;1.494;2023-03-03T08:28:59;41.75;;;20.05;;
78873;SDS011;68250;43.514;1.494;2023-03-03T08:31:25;37.57;;;18.67;;
78873;SDS011;68250;43.514;1.494;2023-03-03T08:33:51;43.17;;;19.95;;
78873;SDS011;68250;43.514;1.494;2023-03-03T08:36:17;42.20;;;19.83;;
78873;SDS011;68250;43.514;1.494;2023-03-03T08:38:43;40.95;;;19.52;;
78873;SDS011;68250;43.514;1.494;2023-03-03T08:41:09;41.83;;;19.90;;
78873;SDS011;68250;43.514;1.494;2023-03-03T08:43:35;44.13;;;20.17;;
78873;SDS011;68250;43.514;1.494;2023-03-03T08:46:01;40.23;;;19.43;;
78873;SDS011;68250;43.514;1.494;2023-03-03T08:48:29;39.45;;;19.38;;
78873;SDS011;68250;43.514;1.494;2023-03-03T08:50:55;42.63;;;19.88;;
78873;SDS011;68250;43.514;1.494;2023-03-03T08:53:21;39.70;;;20.17;;
78873;SDS011;68250;43.514;1.494;2023-03-03T08:55:47;40.15;;;20.17;;
78873;SDS011;68250;43.514;1.494;2023-03-03T08:58:13;42.08;;;19.27;;
78873;SDS011;68250;43.514;1.494;2023-03-03T09:00:40;39.63;;;20.38;;
78873;SDS011;68250;43.514;1.494;2023-03-03T09:03:06;39.85;;;19.95;;
78873;SDS011;68250;43.514;1.494;2023-03-03T09:05:32;40.63;;;20.03;;
78873;SDS011;68250;43.514;1.494;2023-03-03T09:07:58;43.33;;;20.33;;
78873;SDS011;68250;43.514;1.494;2023-03-03T09:10:25;46.47;;;20.75;;
78873;SDS011;68250;43.514;1.494;2023-03-03T09:12:53;41.08;;;20.08;;
78873;SDS011;68250;43.514;1.494;2023-03-03T09:15:26;37.38;;;19.38;;
78873;SDS011;68250;43.514;1.494;2023-03-03T09:17:53;42.80;;;20.07;;
78873;SDS011;68250;43.514;1.494;2023-03-03T09:22:58;43.78;;;20.40;;
78873;SDS011;68250;43.514;1.494;2023-03-03T09:25:34;41.35;;;19.30;;
78873;SDS011;68250;43.514;1.494;2023-03-03T09:28:01;40.15;;;19.55;;
78873;SDS011;68250;43.514;1.494;2023-03-03T09:33:18;39.92;;;19.88;;
78873;SDS011;68250;43.514;1.494;2023-03-03T09:35:57;43.70;;;20.27;;
78873;SDS011;68250;43.514;1.494;2023-03-03T09:38:29;43.20;;;20.20;;
78873;SDS011;68250;43.514;1.494;2023-03-03T09:56:49;37.67;;;18.80;;
78873;SDS011;68250;43.514;1.494;2023-03-03T10:02:34;38.08;;;19.08;;
78873;SDS011;68250;43.514;1.494;2023-03-03T10:05:16;40.47;;;18.80;;
78873;SDS011;68250;43.514;1.494;2023-03-03T10:21:50;33.95;;;15.88;;
78873;SDS011;68250;43.514;1.494;2023-03-03T10:24:28;34.80;;;16.53;;
78873;SDS011;68250;43.514;1.494;2023-03-03T10:35:00;36.60;;;16.88;;
78873;SDS011;68250;43.514;1.494;2023-03-03T10:37:27;33.73;;;16.97;;
78873;SDS011;68250;43.514;1.494;2023-03-03T10:43:21;38.88;;;18.52;;
78873;SDS011;68250;43.514;1.494;2023-03-03T11:01:59;38.58;;;18.33;;
78873;SDS011;68250;43.514;1.494;2023-03-03T11:07:18;31.85;;;15.52;;
78873;SDS011;68250;43.514;1.494;2023-03-03T11:09:55;35.70;;;17.38;;
78873;SDS011;68250;43.514;1.494;2023-03-03T11:12:37;35.92;;;16.17;;
78873;SDS011;68250;43.514;1.494;2023-03-03T11:15:08;29.95;;;15.18;;
78873;SDS011;68250;43.514;1.494;2023-03-03T11:23:47;31.80;;;15.68;;
78873;SDS011;68250;43.514;1.494;2023-03-03T11:31:36;29.63;;;14.40;;
78873;SDS011;68250;43.514;1.494;2023-03-03T11:34:11;29.40;;;14.93;;
78873;SDS011;68250;43.514;1.494;2023-03-03T11:37:00;31.13;;;15.55;;
78873;SDS011;68250;43.514;1.494;2023-03-03T11:39:30;28.42;;;14.70;;
78873;SDS011;68250;43.514;1.494;2023-03-03T11:42:06;32.28;;;15.30;;
78873;SDS011;68250;43.514;1.494;2023-03-03T11:44:42;32.37;;;15.33;;
78873;SDS011;68250;43.514;1.494;2023-03-03T11:50:07;31.13;;;14.90;;
78873;SDS011;68250;43.514;1.494;2023-03-03T11:52:42;30.13;;;14.50;;
78873;SDS011;68250;43.514;1.494;2023-03-03T11:58:04;29.57;;;14.73;;
78873;SDS011;68250;43.514;1.494;2023-03-03T12:00:36;29.17;;;14.70;;
78873;SDS011;68250;43.514;1.494;2023-03-03T12:05:54;29.38;;;14.38;;
78873;SDS011;68250;43.514;1.494;2023-03-03T12:22:12;29.55;;;14.18;;
78873;SDS011;68250;43.514;1.494;2023-03-03T12:25:10;28.13;;;13.73;;
78873;SDS011;68250;43.514;1.494;2023-03-03T12:28:11;30.38;;;14.02;;
78873;SDS011;68250;43.514;1.494;2023-03-03T12:31:05;33.10;;;14.95;;
78873;SDS011;68250;43.514;1.494;2023-03-03T12:47:39;28.95;;;14.65;;
78873;SDS011;68250;43.514;1.494;2023-03-03T12:55:43;33.10;;;16.33;;
78873;SDS011;68250;43.514;1.494;2023-03-03T13:06:35;28.67;;;14.73;;
78873;SDS011;68250;43.514;1.494;2023-03-03T13:09:10;32.50;;;15.27;;
78873;SDS011;68250;43.514;1.494;2023-03-03T13:16:48;32.25;;;15.70;;
78873;SDS011;68250;43.514;1.494;2023-03-03T13:19:25;33.70;;;16.00;;
78873;SDS011;68250;43.514;1.494;2023-03-03T13:22:28;33.72;;;15.85;;
78873;SDS011;68250;43.514;1.494;2023-03-03T13:25:30;32.55;;;15.90;;
78873;SDS011;68250;43.514;1.494;2023-03-03T13:27:49;32.05;;;16.38;;
78873;SDS011;68250;43.514;1.494;2023-03-03T13:30:29;30.13;;;15.55;;
78873;SDS011;68250;43.514;1.494;2023-03-03T13:33:03;33.93;;;16.40;;
78873;SDS011;68250;43.514;1.494;2023-03-03T13:36:02;33.08;;;16.30;;
78873;SDS011;68250;43.514;1.494;2023-03-03T13:38:33;35.95;;;17.33;;
78873;SDS011;68250;43.514;1.494;2023-03-03T13:41:22;32.65;;;15.90;;
78873;SDS011;68250;43.514;1.494;2023-03-03T13:46:27;30.97;;;15.60;;
78873;SDS011;68250;43.514;1.494;2023-03-03T13:52:02;30.48;;;15.07;;
78873;SDS011;68250;43.514;1.494;2023-03-03T13:57:19;30.55;;;15.55;;
78873;SDS011;68250;43.514;1.494;2023-03-03T14:06:14;36.08;;;16.52;;
78873;SDS011;68250;43.514;1.494;2023-03-03T14:11:29;33.47;;;17.75;;
78873;SDS011;68250;43.514;1.494;2023-03-03T14:16:49;26.95;;;14.10;;
78873;SDS011;68250;43.514;1.494;2023-03-03T14:19:49;33.53;;;18.65;;
78873;SDS011;68250;43.514;1.494;2023-03-03T14:25:19;30.55;;;15.00;;
78873;SDS011;68250;43.514;1.494;2023-03-03T14:30:26;31.08;;;15.07;;
78873;SDS011;68250;43.514;1.494;2023-03-03T14:33:19;28.48;;;14.82;;
78873;SDS011;68250;43.514;1.494;2023-03-03T14:35:50;30.65;;;15.65;;
78873;SDS011;68250;43.514;1.494;2023-03-03T14:44:27;30.85;;;15.18;;
78873;SDS011;68250;43.514;1.494;2023-03-03T14:49:35;32.17;;;15.68;;
78873;SDS011;68250;43.514;1.494;2023-03-03T14:52:04;29.97;;;15.30;;
78873;SDS011;68250;43.514;1.494;2023-03-03T14:54:46;30.33;;;14.63;;
78873;SDS011;68250;43.514;1.494;2023-03-03T14:59:54;30.05;;;14.35;;
78873;SDS011;68250;43.514;1.494;2023-03-03T15:03:28;29.55;;;13.90;;
78873;SDS011;68250;43.514;1.494;2023-03-03T15:05:50;28.33;;;13.53;;
78873;SDS011;68250;43.514;1.494;2023-03-03T15:08:22;29.83;;;13.55;;
78873;SDS011;68250;43.514;1.494;2023-03-03T15:10:52;27.10;;;13.15;;
78873;SDS011;68250;43.514;1.494;2023-03-03T15:18:24;23.45;;;11.38;;
78873;SDS011;68250;43.514;1.494;2023-03-03T15:21:10;22.75;;;11.30;;
78873;SDS011;68250;43.514;1.494;2023-03-03T15:29:15;24.75;;;12.18;;
78873;SDS011;68250;43.514;1.494;2023-03-03T15:34:38;26.35;;;12.35;;
78873;SDS011;68250;43.514;1.494;2023-03-03T15:45:26;22.37;;;11.40;;
78873;SDS011;68250;43.514;1.494;2023-03-03T15:47:59;25.83;;;11.65;;
78873;SDS011;68250;43.514;1.494;2023-03-03T15:58:51;27.45;;;12.85;;
78873;SDS011;68250;43.514;1.494;2023-03-03T16:01:24;26.85;;;12.40;;
78873;SDS011;68250;43.514;1.494;2023-03-03T16:03:54;23.70;;;12.30;;
78873;SDS011;68250;43.514;1.494;2023-03-03T16:06:28;24.67;;;12.73;;
78873;SDS011;68250;43.514;1.494;2023-03-03T16:17:31;25.35;;;13.10;;
78873;SDS011;68250;43.514;1.494;2023-03-03T16:28:31;38.67;;;18.05;;
78873;SDS011;68250;43.514;1.494;2023-03-03T16:31:20;31.77;;;15.07;;
78873;SDS011;68250;43.514;1.494;2023-03-03T16:34:34;32.92;;;17.27;;
78873;SDS011;68250;43.514;1.494;2023-03-03T16:55:45;30.50;;;16.65;;
78873;SDS011;68250;43.514;1.494;2023-03-03T17:06:51;32.20;;;17.97;;
78873;SDS011;68250;43.514;1.494;2023-03-03T17:12:05;26.92;;;13.95;;
78873;SDS011;68250;43.514;1.494;2023-03-03T17:14:48;28.90;;;16.05;;
78873;SDS011;68250;43.514;1.494;2023-03-03T17:29:04;29.30;;;14.98;;
78873;SDS011;68250;43.514;1.494;2023-03-03T17:34:32;31.60;;;14.80;;
78873;SDS011;68250;43.514;1.494;2023-03-03T17:37:31;29.20;;;15.05;;
78873;SDS011;68250;43.514;1.494;2023-03-03T17:46:27;30.10;;;14.70;;
78873;SDS011;68250;43.514;1.494;2023-03-03T17:54:32;32.30;;;14.73;;
78873;SDS011;68250;43.514;1.494;2023-03-03T18:02:49;36.57;;;17.50;;
78873;SDS011;68250;43.514;1.494;2023-03-03T18:22:42;35.38;;;16.73;;
78873;SDS011;68250;43.514;1.494;2023-03-03T18:25:16;32.25;;;15.05;;
78873;SDS011;68250;43.514;1.494;2023-03-03T18:27:46;33.47;;;15.25;;
78873;SDS011;68250;43.514;1.494;2023-03-03T18:30:14;32.93;;;15.80;;
78873;SDS011;68250;43.514;1.494;2023-03-03T18:37:55;34.55;;;17.27;;
78873;SDS011;68250;43.514;1.494;2023-03-03T18:40:31;31.23;;;16.33;;
78873;SDS011;68250;43.514;1.494;2023-03-03T18:42:57;31.35;;;15.32;;
78873;SDS011;68250;43.514;1.494;2023-03-03T18:50:30;27.95;;;14.35;;
78873;SDS011;68250;43.514;1.494;2023-03-03T18:53:15;28.97;;;14.60;;
78873;SDS011;68250;43.514;1.494;2023-03-03T19:00:46;27.87;;;13.57;;
78873;SDS011;68250;43.514;1.494;2023-03-03T19:06:02;33.78;;;14.52;;
78873;SDS011;68250;43.514;1.494;2023-03-03T19:08:50;32.92;;;15.90;;
78873;SDS011;68250;43.514;1.494;2023-03-03T19:11:34;37.33;;;17.23;;
78873;SDS011;68250;43.514;1.494;2023-03-03T19:16:55;34.70;;;15.23;;
78873;SDS011;68250;43.514;1.494;2023-03-03T19:19:23;35.20;;;15.15;;
78873;SDS011;68250;43.514;1.494;2023-03-03T19:25:02;29.30;;;13.97;;
78873;SDS011;68250;43.514;1.494;2023-03-03T19:30:59;34.15;;;14.70;;
78873;SDS011;68250;43.514;1.494;2023-03-03T19:36:20;32.60;;;14.90;;
78873;SDS011;68250;43.514;1.494;2023-03-03T19:39:01;41.00;;;18.10;;
78873;SDS011;68250;43.514;1.494;2023-03-03T19:49:57;43.13;;;18.60;;
78873;SDS011;68250;43.514;1.494;2023-03-03T19:57:34;42.05;;;19.52;;
78873;SDS011;68250;43.514;1.494;2023-03-03T20:00:26;41.92;;;18.63;;
78873;SDS011;68250;43.514;1.494;2023-03-03T20:09:17;37.03;;;16.63;;
78873;SDS011;68250;43.514;1.494;2023-03-03T20:14:46;39.85;;;17.95;;
78873;SDS011;68250;43.514;1.494;2023-03-03T20:25:47;37.38;;;17.23;;
78873;SDS011;68250;43.514;1.494;2023-03-03T20:41:58;42.17;;;18.08;;
78873;SDS011;68250;43.514;1.494;2023-03-03T20:52:51;40.53;;;17.33;;
78873;SDS011;68250;43.514;1.494;2023-03-03T20:58:33;40.55;;;17.88;;
78873;SDS011;68250;43.514;1.494;2023-03-03T21:01:11;38.90;;;17.63;;
78873;SDS011;68250;43.514;1.494;2023-03-03T21:03:45;38.00;;;16.90;;
78873;SDS011;68250;43.514;1.494;2023-03-03T21:06:17;39.30;;;18.48;;
78873;SDS011;68250;43.514;1.494;2023-03-03T21:08:48;42.00;;;18.63;;
78873;SDS011;68250;43.514;1.494;2023-03-03T21:13:56;41.08;;;17.90;;
78873;SDS011;68250;43.514;1.494;2023-03-03T21:18:55;40.87;;;17.93;;
78873;SDS011;68250;43.514;1.494;2023-03-03T21:21:21;40.22;;;17.88;;
78873;SDS011;68250;43.514;1.494;2023-03-03T21:23:47;39.90;;;18.10;;
78873;SDS011;68250;43.514;1.494;2023-03-03T21:26:12;40.67;;;18.63;;
78873;SDS011;68250;43.514;1.494;2023-03-03T21:28:38;39.30;;;17.30;;
78873;SDS011;68250;43.514;1.494;2023-03-03T21:31:23;42.88;;;19.20;;
78873;SDS011;68250;43.514;1.494;2023-03-03T21:36:15;44.80;;;19.35;;
78873;SDS011;68250;43.514;1.494;2023-03-03T21:38:47;45.13;;;19.67;;
78873;SDS011;68250;43.514;1.494;2023-03-03T21:41:14;41.75;;;19.02;;
78873;SDS011;68250;43.514;1.494;2023-03-03T21:43:42;43.92;;;19.08;;